Weather observations for the past three days for
Torrington Municipal Airport
Imperial (Metric)
Date Time (mdt) Wind (mph) Vis. (mi.) Weather Sky Cond. Temperature (ºF) Relative Humidity Wind Chill (°F) Heat Index (°F) Pressure Precipitation (in)
Air Dwpt 6 hour altimeter (in) sea level (mb) 1 hr 3 hr 6 hr
Max. Min.
04 17:53 NE 21 G 29 10.00 A Few Clouds and Breezy FEW080 60.1 30 66 60.1 32% 29.82 1008.4
04 16:53 N 18 G 29 10.00 Mostly Cloudy BKN070 63 30.9 30% 29.79 1007.0
04 15:53 N 8 7.00 A Few Clouds FEW075 64 30.9 29% 29.79 1006.7
04 14:53 N 9 G 22 10.00 A Few Clouds FEW070 63 30.9 30% 29.8 1007.2
04 13:53 N 14 G 23 10.00 Fair CLR 66 30.9 27% 29.8 1007.0
04 12:53 N 16 G 24 10.00 Fair CLR 63 30 29% 29.82 1007.3
04 11:53 NE 17 G 25 10.00 Fair CLR 62.1 30 63 37.9 30% 29.83 1007.7
04 10:53 N 18 G 28 10.00 Fair CLR 62.1 32 32% 29.81 1006.9
04 09:53 NE 21 G 25 10.00 Partly Cloudy and Breezy FEW090 SCT100 61 32 34% 29.79 1005.6
04 08:53 W 6 10.00 A Few Clouds FEW110 55 32 42% 29.76 1004.9
04 07:53 W 7 10.00 Fair CLR 48.9 32 52% 46 29.77 1005.4
04 06:53 N 6 10.00 Fair CLR 42.1 30.9 65% 39 29.76 1005.2
04 05:53 NW 6 10.00 Fair CLR 37.9 28.9 51.1 37.9 70% 34 29.75 1005.5
04 04:53 Calm 10.00 Fair CLR 41 30 65% 29.75 1004.7
04 03:53 Calm 10.00 Fair CLR 43 30 60% 29.76 1004.8
04 02:53 NE 5 10.00 Fair CLR 42.1 28.9 60% 40 29.77 1005.4
04 01:53 NE 7 10.00 Fair CLR 42.1 28.9 60% 38 29.79 1006.1
04 00:53 SW 3 10.00 Fair CLR 48 30 50% 29.79 1006.0
03 23:53 W 3 10.00 Fair CLR 48.9 30 68 45 48% 29.81 1006.7
03 22:53 Calm 10.00 Fair CLR 52 28.9 41% 29.82 1007.0
03 21:53 E 6 10.00 Fair CLR 55.9 28 34% 29.83 1007.2
03 20:53 E 5 10.00 Fair CLR 59 28.9 32% 29.83 1007.3
03 19:53 N 14 10.00 Fair CLR 62.1 30 30% 29.81 1006.6
03 18:53 N 15 10.00 Fair CLR 66.9 28.9 24% 29.82 1007.5
03 17:53 N 22 G 38 10.00 A Few Clouds and Breezy FEW110 66.9 30 73.9 64.9 25% 29.84 1008.2
03 16:53 NW 7 10.00 Fair CLR 73 24.1 16% 29.81 1006.7
03 15:53 N 6 10.00 Fair CLR 72 25 17% 29.83 1007.2
03 14:53 Calm 10.00 Fair CLR 72 26.1 18% 29.87 1008.5
03 13:53 SE 12 10.00 Fair CLR 71.1 28.9 21% 29.9 1009.4
03 12:53 Calm 10.00 Fair CLR 66.9 28.9 24% 29.94 1010.9
03 11:53 S 14 G 21 10.00 Fair CLR 64.9 30 66.9 41 27% 29.98 1012.1
03 10:53 E 9 G 20 10.00 Fair CLR 63 30.9 30% 30.01 1013.2
03 09:53 SE 12 10.00 Fair CLR 60.1 30 32% 30.02 1013.5
03 08:53 SE 12 G 17 10.00 Fair CLR 57 30.9 37% 30.03 1014.2
03 07:53 Vrbl 6 10.00 Fair CLR 53.1 32 45% 30.04 1014.0
03 06:53 NE 8 10.00 Fair CLR 43 30 60% 39 30.02 1013.9
03 05:53 N 3 10.00 Fair CLR 41 28.9 55.9 39.9 62% 30 1013.1
03 04:53 N 8 10.00 Fair CLR 43 28.9 58% 39 30 1012.7
03 03:53 N 12 10.00 Fair CLR 45 28.9 54% 40 30 1012.6
03 02:53 NW 3 10.00 Fair CLR 45 28.9 54% 29.99 1012.4
03 01:53 N 3 10.00 Fair CLR 50 28.9 44% 29.98 1012.0
03 00:53 E 6 10.00 Fair CLR 53.1 28 38% 29.99 1012.3
02 23:53 Calm 10.00 Fair CLR 55 21 75.9 54 26% 29.99 1012.4
02 22:53 NE 9 10.00 Fair CLR 55.9 17.1 22% 29.98 1012.3
02 21:53 Calm 10.00 Fair CLR 59 17.1 19% 29.96 1012.2
02 20:53 N 7 10.00 Fair CLR 61 12.9 15% 29.95 1012.4
02 19:53 NW 9 10.00 Fair CLR 69.1 10.9 10% 29.93 1011.6
02 18:53 NW 13 G 20 10.00 Fair CLR 73.9 12.9 10% 29.93 1011.5
02 17:53 W 9 10.00 Fair CLR 75.9 10 77 68 8% 75 29.94 1011.9
02 16:53 W 9 10.00 Fair CLR 75.9 10 8% 75 29.95 1012.5
02 15:53 NW 12 10.00 Fair CLR 75.9 9 7% 75 29.98 1013.0
02 14:53 NW 13 G 23 10.00 Fair CLR 75 10.9 8% 74 30 1014.0
02 13:53 W 15 G 29 10.00 Fair CLR 73.9 12 9% 30.03 1014.4
02 12:53 W 7 G 17 10.00 Fair CLR 70 14 11% 30.05 1015.7
02 11:53 W 12 10.00 Fair CLR 68 19.9 68 28.9 16% 30.09 1016.7
02 10:53 W 5 10.00 Fair CLR 61 27 27% 30.11 1018.1
02 09:53 SW 3 10.00 Fair CLR 52 27 38% 30.13 1019.1
02 08:53 Calm 8.00 Fair CLR 45 26.1 48% 30.14 1019.9
02 07:53 Calm 10.00 Fair CLR 39 26.1 60% 30.14 1019.9
02 06:53 Calm 10.00 Fair CLR 33.1 25 72% 30.15 1020.1
02 05:53 W 3 10.00 Fair CLR 30.9 24.1 41 30 76% 30.15 1020.2
02 04:53 E 8 10.00 Fair CLR 30 23 75% 23 30.15 1020.7
02 03:53 E 5 10.00 Fair CLR 32 24.1 73% 28 30.16 1020.6
02 02:53 NE 5 10.00 Fair CLR 32 24.1 73% 28 30.16 1020.5
02 01:53 Calm 10.00 Fair CLR 39 25 57% 30.18 1020.5
02 00:53 NE 5 10.00 Fair CLR 37.9 25 60% 35 30.18 1021.1
01 23:53 E 5 10.00 Fair CLR 41 25 64 41 53% 38 30.17 1020.5
01 22:53 E 9 10.00 Fair CLR 43 25 49% 38 30.15 1019.9
01 21:53 E 10 10.00 Fair CLR 46.9 24.1 41% 43 30.14 1019.6
01 20:53 NE 10 10.00 Fair CLR 50 23 35% 46 30.1 1018.5
01 19:53 NE 9 10.00 Overcast OVC100 57.9 19.9 23% 30.07 1016.9
01 18:53 NW 12 10.00 Overcast OVC110 62.1 19.9 20% 30.05 1016.9
Date Time (mdt) Wind (mph) Vis. (mi.) Weather Sky Cond. Air Dwpt Max. Min. Relative Humidity Wind Chill (°F) Heat Index (°F) altimeter (in) sea level (mb) 1 hr 3 hr 6 hr
6 hour
Temperature (ºF) Pressure Precipitation (in)